PGT14U LTFJ-LTCM
Flight info
| Callsign | PGT14U |
|---|---|
| Flight time | 1h 15m |
| Altitude | 35000 |
| Route | EKAWE UT641 ABSAX UN743 GAKSU/N0442F270 T310 ATNOP |
| Aircraft | A320/M-SDE3FGHIRWY/LB1 |
Departure
| Time | 2026-05-05 20:30 |
|---|---|
| Airport | Istanbul Sabiha Gökçen International Airport (LTFJ) |
Arrival
| Time | 2026-05-05 21:46 |
|---|---|
| Airport | Sinop Airport (LTCM) |
| Time | Latitude | Longitude | Altitude | Speed | Heading |
|---|---|---|---|---|---|
| 2026-05-05 20:02 | 40.90285 | 29.31230 | 310 ft | 0 kts | 154° |
| 2026-05-05 20:17 | 40.90304 | 29.31218 | 310 ft | 4 kts | 150° |
| 2026-05-05 20:17 | 40.90326 | 29.31199 | 310 ft | 4 kts | 139° |
| 2026-05-05 20:17 | 40.90343 | 29.31173 | 308 ft | 4 kts | 108° |
| 2026-05-05 20:18 | 40.90344 | 29.31150 | 309 ft | 1 kts | 64° |
| 2026-05-05 20:18 | 40.90342 | 29.31146 | 309 ft | 0 kts | 64° |
| 2026-05-05 20:23 | 40.90365 | 29.31208 | 310 ft | 13 kts | 64° |
| 2026-05-05 20:23 | 40.90368 | 29.31216 | 311 ft | 0 kts | 64° |
| 2026-05-05 20:23 | 40.90387 | 29.31268 | 310 ft | 10 kts | 64° |
| 2026-05-05 20:24 | 40.90421 | 29.31362 | 311 ft | 12 kts | 64° |
| 2026-05-05 20:24 | 40.90393 | 29.31449 | 311 ft | 12 kts | 156° |
| 2026-05-05 20:24 | 40.90326 | 29.31495 | 311 ft | 10 kts | 151° |
| 2026-05-05 20:24 | 40.90272 | 29.31482 | 311 ft | 8 kts | 234° |
| 2026-05-05 20:25 | 40.90247 | 29.31414 | 311 ft | 11 kts | 244° |
| 2026-05-05 20:25 | 40.90192 | 29.31266 | 311 ft | 24 kts | 243° |
| 2026-05-05 20:25 | 40.90114 | 29.31054 | 311 ft | 26 kts | 244° |
| 2026-05-05 20:25 | 40.90033 | 29.30830 | 311 ft | 28 kts | 244° |
| 2026-05-05 20:26 | 40.89947 | 29.30594 | 310 ft | 29 kts | 244° |
| 2026-05-05 20:26 | 40.89858 | 29.30356 | 310 ft | 27 kts | 243° |
| 2026-05-05 20:26 | 40.89773 | 29.30128 | 308 ft | 29 kts | 244° |
| 2026-05-05 20:26 | 40.89688 | 29.29923 | 308 ft | 16 kts | 215° |
| 2026-05-05 20:27 | 40.89638 | 29.29966 | 307 ft | 7 kts | 104° |
| 2026-05-05 20:27 | 40.89636 | 29.29993 | 307 ft | 0 kts | 96° |
| 2026-05-05 20:28 | 40.89635 | 29.29996 | 307 ft | 3 kts | 95° |
| 2026-05-05 20:28 | 40.89632 | 29.30040 | 308 ft | 4 kts | 95° |
| 2026-05-05 20:29 | 40.89626 | 29.30105 | 309 ft | 10 kts | 109° |
| 2026-05-05 20:29 | 40.89584 | 29.30157 | 309 ft | 7 kts | 122° |
| 2026-05-05 20:29 | 40.89590 | 29.30195 | 310 ft | 0 kts | 65° |
| 2026-05-05 20:29 | 40.89593 | 29.30206 | 309 ft | 15 kts | 65° |
| 2026-05-05 20:30 | 40.89759 | 29.30660 | 312 ft | 89 kts | 64° |
| 2026-05-05 20:30 | 40.90119 | 29.31639 | 313 ft | 145 kts | 64° |
| 2026-05-05 20:30 | 40.90593 | 29.32916 | 796 ft | 154 kts | 63° |
| 2026-05-05 20:30 | 40.91081 | 29.34172 | 1524 ft | 155 kts | 63° |
| 2026-05-05 20:31 | 40.91561 | 29.35471 | 2140 ft | 161 kts | 62° |
| 2026-05-05 20:31 | 40.92089 | 29.36888 | 2490 ft | 183 kts | 63° |
| 2026-05-05 20:31 | 40.92674 | 29.38492 | 2818 ft | 205 kts | 63° |
| 2026-05-05 20:31 | 40.93323 | 29.40275 | 3170 ft | 224 kts | 62° |
| 2026-05-05 20:32 | 40.94039 | 29.42235 | 3579 ft | 247 kts | 62° |
| 2026-05-05 20:32 | 40.94818 | 29.44334 | 4285 ft | 260 kts | 58° |
| 2026-05-05 20:32 | 40.95992 | 29.46146 | 5177 ft | 261 kts | 37° |
| 2026-05-05 20:32 | 40.97412 | 29.47648 | 6144 ft | 263 kts | 36° |
| 2026-05-05 20:33 | 40.98851 | 29.49157 | 7068 ft | 265 kts | 36° |
| 2026-05-05 20:33 | 41.00304 | 29.50677 | 7971 ft | 268 kts | 36° |
| 2026-05-05 20:33 | 41.01771 | 29.52213 | 8886 ft | 270 kts | 36° |
| 2026-05-05 20:33 | 41.03258 | 29.53769 | 9793 ft | 273 kts | 36° |
| 2026-05-05 20:34 | 41.04752 | 29.55334 | 10397 ft | 286 kts | 36° |
| 2026-05-05 20:34 | 41.06378 | 29.57038 | 10683 ft | 310 kts | 37° |
| 2026-05-05 20:34 | 41.08132 | 29.58879 | 10912 ft | 333 kts | 37° |
| 2026-05-05 20:34 | 41.09985 | 29.60825 | 11377 ft | 345 kts | 37° |
| 2026-05-05 20:35 | 41.11877 | 29.62819 | 12088 ft | 350 kts | 37° |
| 2026-05-05 20:35 | 41.13791 | 29.64840 | 12828 ft | 354 kts | 37° |
| 2026-05-05 20:35 | 41.15726 | 29.66885 | 13570 ft | 357 kts | 37° |
| 2026-05-05 20:35 | 41.17684 | 29.68953 | 14231 ft | 361 kts | 37° |
| 2026-05-05 20:36 | 41.19664 | 29.71042 | 14860 ft | 365 kts | 37° |
| 2026-05-05 20:36 | 41.21662 | 29.73152 | 15469 ft | 369 kts | 37° |
| 2026-05-05 20:36 | 41.23677 | 29.75286 | 16079 ft | 372 kts | 37° |
| 2026-05-05 20:36 | 41.25709 | 29.77440 | 16688 ft | 376 kts | 37° |
| 2026-05-05 20:37 | 41.27759 | 29.79614 | 17275 ft | 379 kts | 37° |
| 2026-05-05 20:37 | 41.29831 | 29.81811 | 17855 ft | 382 kts | 37° |
| 2026-05-05 20:37 | 41.31921 | 29.84030 | 18421 ft | 386 kts | 37° |
| 2026-05-05 20:37 | 41.34023 | 29.86265 | 18920 ft | 389 kts | 37° |
| 2026-05-05 20:38 | 41.36144 | 29.88524 | 19418 ft | 392 kts | 37° |
| 2026-05-05 20:38 | 41.38252 | 29.90775 | 19905 ft | 395 kts | 37° |
| 2026-05-05 20:38 | 41.40398 | 29.93069 | 20398 ft | 397 kts | 37° |
| 2026-05-05 20:38 | 41.42565 | 29.95383 | 20893 ft | 400 kts | 37° |
| 2026-05-05 20:39 | 41.44748 | 29.97716 | 21360 ft | 403 kts | 37° |
| 2026-05-05 20:39 | 41.46953 | 30.00068 | 21846 ft | 405 kts | 37° |
| 2026-05-05 20:39 | 41.49163 | 30.02425 | 22339 ft | 407 kts | 37° |
| 2026-05-05 20:39 | 41.51380 | 30.04793 | 22812 ft | 410 kts | 37° |
| 2026-05-05 20:40 | 41.53610 | 30.07182 | 23269 ft | 412 kts | 37° |
| 2026-05-05 20:40 | 41.55854 | 30.09591 | 23693 ft | 415 kts | 37° |
| 2026-05-05 20:40 | 41.58110 | 30.12017 | 24067 ft | 417 kts | 37° |
| 2026-05-05 20:40 | 41.60375 | 30.14448 | 24432 ft | 419 kts | 37° |
| 2026-05-05 20:41 | 41.62653 | 30.16893 | 24827 ft | 420 kts | 37° |
| 2026-05-05 20:41 | 41.64905 | 30.19317 | 25230 ft | 421 kts | 37° |
| 2026-05-05 20:41 | 41.67186 | 30.21777 | 25612 ft | 422 kts | 37° |
| 2026-05-05 20:41 | 41.69479 | 30.24255 | 25979 ft | 424 kts | 37° |
| 2026-05-05 20:42 | 41.71809 | 30.26776 | 26338 ft | 426 kts | 37° |
| 2026-05-05 20:42 | 41.74113 | 30.29270 | 26678 ft | 427 kts | 37° |
| 2026-05-05 20:42 | 41.76432 | 30.31775 | 27016 ft | 429 kts | 37° |
| 2026-05-05 20:42 | 41.78729 | 30.34257 | 27366 ft | 430 kts | 37° |
| 2026-05-05 20:43 | 41.81061 | 30.36779 | 27688 ft | 431 kts | 37° |
| 2026-05-05 20:43 | 41.83401 | 30.39318 | 28012 ft | 433 kts | 37° |
| 2026-05-05 20:43 | 41.85744 | 30.41866 | 28326 ft | 435 kts | 37° |
| 2026-05-05 20:43 | 41.88098 | 30.44426 | 28643 ft | 436 kts | 37° |
| 2026-05-05 20:44 | 41.90451 | 30.46988 | 29092 ft | 434 kts | 37° |
| 2026-05-05 20:44 | 41.92788 | 30.49532 | 29559 ft | 432 kts | 37° |
| 2026-05-05 20:44 | 41.95078 | 30.52154 | 29990 ft | 433 kts | 42° |
| 2026-05-05 20:44 | 41.97021 | 30.55256 | 30366 ft | 436 kts | 53° |
| 2026-05-05 20:45 | 41.99466 | 30.62738 | 31053 ft | 444 kts | 74° |
| 2026-05-05 20:45 | 41.99855 | 30.66878 | 31390 ft | 450 kts | 84° |
| 2026-05-05 20:45 | 41.99889 | 30.71097 | 31735 ft | 450 kts | 85° |
| 2026-05-05 20:46 | 41.99914 | 30.75311 | 32068 ft | 450 kts | 85° |
| 2026-05-05 20:46 | 41.99938 | 30.79456 | 32407 ft | 449 kts | 85° |
| 2026-05-05 20:46 | 41.99961 | 30.83653 | 32761 ft | 449 kts | 85° |
| 2026-05-05 20:46 | 41.99985 | 30.87846 | 33134 ft | 448 kts | 85° |
| 2026-05-05 20:47 | 42.00010 | 30.92028 | 33494 ft | 446 kts | 85° |
| 2026-05-05 20:47 | 42.00032 | 30.96201 | 33849 ft | 446 kts | 85° |
| 2026-05-05 20:47 | 42.00099 | 31.00353 | 34180 ft | 443 kts | 81° |
| 2026-05-05 20:47 | 42.00544 | 31.04419 | 34450 ft | 438 kts | 73° |
| 2026-05-05 20:48 | 42.01336 | 31.08348 | 34577 ft | 430 kts | 70° |
| 2026-05-05 20:48 | 42.02140 | 31.12177 | 34704 ft | 423 kts | 70° |
| 2026-05-05 20:48 | 42.02953 | 31.16000 | 34828 ft | 426 kts | 70° |
| 2026-05-05 20:48 | 42.03774 | 31.19792 | 34971 ft | 429 kts | 70° |
| 2026-05-05 20:49 | 42.05464 | 31.27592 | 35069 ft | 439 kts | 70° |
| 2026-05-05 20:49 | 42.07146 | 31.35526 | 35070 ft | 442 kts | 70° |
| 2026-05-05 20:50 | 42.08806 | 31.43482 | 35070 ft | 442 kts | 70° |
| 2026-05-05 20:50 | 42.10474 | 31.51448 | 35070 ft | 442 kts | 70° |
| 2026-05-05 20:51 | 42.12144 | 31.59420 | 35071 ft | 442 kts | 70° |
| 2026-05-05 20:51 | 42.13810 | 31.67404 | 35090 ft | 443 kts | 70° |
| 2026-05-05 20:52 | 42.15467 | 31.75395 | 35078 ft | 443 kts | 70° |
| 2026-05-05 20:52 | 42.17120 | 31.83398 | 35072 ft | 443 kts | 71° |
| 2026-05-05 20:53 | 42.18769 | 31.91397 | 35072 ft | 443 kts | 71° |
| 2026-05-05 20:53 | 42.20408 | 31.99405 | 35065 ft | 443 kts | 71° |
| 2026-05-05 20:54 | 42.22041 | 32.07422 | 35059 ft | 443 kts | 71° |
| 2026-05-05 20:54 | 42.23656 | 32.15386 | 35073 ft | 443 kts | 71° |
| 2026-05-05 20:55 | 42.25295 | 32.23394 | 35083 ft | 442 kts | 70° |
| 2026-05-05 20:55 | 42.27110 | 32.31314 | 35072 ft | 441 kts | 68° |
| 2026-05-05 20:56 | 42.28987 | 32.39202 | 35068 ft | 441 kts | 68° |
| 2026-05-05 20:56 | 42.30828 | 32.47123 | 35062 ft | 442 kts | 69° |
| 2026-05-05 20:57 | 42.32545 | 32.55092 | 35072 ft | 444 kts | 75° |
| 2026-05-05 20:57 | 42.32783 | 32.63487 | 35072 ft | 454 kts | 93° |
| 2026-05-05 20:58 | 42.31827 | 32.71934 | 35070 ft | 455 kts | 94° |
| 2026-05-05 20:58 | 42.30876 | 32.80385 | 35073 ft | 455 kts | 94° |
| 2026-05-05 20:59 | 42.29927 | 32.88774 | 35072 ft | 455 kts | 94° |
| 2026-05-05 20:59 | 42.28954 | 32.97218 | 35068 ft | 455 kts | 95° |
| 2026-05-05 21:00 | 42.27977 | 33.05649 | 35082 ft | 455 kts | 95° |
| 2026-05-05 21:00 | 42.26989 | 33.14085 | 35074 ft | 455 kts | 95° |
| 2026-05-05 21:01 | 42.25998 | 33.22536 | 35061 ft | 456 kts | 95° |
| 2026-05-05 21:01 | 42.25003 | 33.30984 | 34877 ft | 457 kts | 95° |
| 2026-05-05 21:02 | 42.24504 | 33.35223 | 34652 ft | 456 kts | 95° |
| 2026-05-05 21:02 | 42.24003 | 33.39441 | 34418 ft | 455 kts | 95° |
| 2026-05-05 21:02 | 42.23499 | 33.43658 | 34124 ft | 455 kts | 95° |
| 2026-05-05 21:02 | 42.22992 | 33.47914 | 33016 ft | 462 kts | 95° |
| 2026-05-05 21:03 | 42.22486 | 33.52134 | 32098 ft | 463 kts | 95° |
| 2026-05-05 21:03 | 42.21967 | 33.56436 | 31064 ft | 467 kts | 94° |
| 2026-05-05 21:03 | 42.21444 | 33.60765 | 30225 ft | 466 kts | 94° |
| 2026-05-05 21:03 | 42.20920 | 33.65092 | 29021 ft | 469 kts | 94° |
| 2026-05-05 21:04 | 42.20389 | 33.69440 | 27752 ft | 472 kts | 95° |
| 2026-05-05 21:04 | 42.19850 | 33.73833 | 26537 ft | 475 kts | 95° |
| 2026-05-05 21:04 | 42.19308 | 33.78241 | 25302 ft | 478 kts | 95° |
| 2026-05-05 21:04 | 42.18764 | 33.82672 | 24279 ft | 477 kts | 96° |
| 2026-05-05 21:05 | 42.18220 | 33.87063 | 23394 ft | 472 kts | 96° |
| 2026-05-05 21:05 | 42.17681 | 33.91406 | 22525 ft | 465 kts | 96° |
| 2026-05-05 21:05 | 42.17150 | 33.95668 | 21739 ft | 458 kts | 96° |
| 2026-05-05 21:05 | 42.16627 | 33.99873 | 20982 ft | 451 kts | 97° |
| 2026-05-05 21:06 | 42.16111 | 34.04013 | 20246 ft | 445 kts | 97° |
| 2026-05-05 21:06 | 42.15599 | 34.08108 | 19527 ft | 440 kts | 97° |
| 2026-05-05 21:06 | 42.15091 | 34.12152 | 18831 ft | 435 kts | 97° |
| 2026-05-05 21:06 | 42.14586 | 34.16152 | 18131 ft | 431 kts | 98° |
| 2026-05-05 21:07 | 42.14090 | 34.20097 | 17458 ft | 424 kts | 99° |
| 2026-05-05 21:07 | 42.13599 | 34.23978 | 16852 ft | 416 kts | 99° |
| 2026-05-05 21:07 | 42.13116 | 34.27789 | 16262 ft | 410 kts | 99° |
| 2026-05-05 21:07 | 42.12638 | 34.31540 | 15709 ft | 403 kts | 99° |
| 2026-05-05 21:08 | 42.12166 | 34.35231 | 15160 ft | 397 kts | 99° |
| 2026-05-05 21:08 | 42.11702 | 34.38863 | 14619 ft | 391 kts | 99° |
| 2026-05-05 21:08 | 42.11397 | 34.41248 | 14268 ft | 388 kts | 99° |
| 2026-05-05 21:08 | 42.10938 | 34.44818 | 13692 ft | 384 kts | 100° |
| 2026-05-05 21:09 | 42.10467 | 34.48342 | 13108 ft | 380 kts | 100° |
| 2026-05-05 21:09 | 42.09829 | 34.52938 | 12332 ft | 375 kts | 101° |
| 2026-05-05 21:09 | 42.09347 | 34.56366 | 11710 ft | 372 kts | 101° |
| 2026-05-05 21:09 | 42.08870 | 34.59772 | 11194 ft | 366 kts | 100° |
| 2026-05-05 21:10 | 42.08556 | 34.62018 | 11103 ft | 355 kts | 100° |
| 2026-05-05 21:10 | 42.08118 | 34.65168 | 10978 ft | 339 kts | 100° |
| 2026-05-05 21:10 | 42.07688 | 34.68262 | 10846 ft | 325 kts | 100° |
| 2026-05-05 21:10 | 42.07286 | 34.71156 | 10729 ft | 313 kts | 100° |
| 2026-05-05 21:11 | 42.06893 | 34.73978 | 10607 ft | 301 kts | 100° |
| 2026-05-05 21:11 | 42.06511 | 34.76708 | 10424 ft | 293 kts | 101° |
| 2026-05-05 21:11 | 42.06134 | 34.79377 | 10309 ft | 289 kts | 101° |
| 2026-05-05 21:11 | 42.05760 | 34.82031 | 10197 ft | 288 kts | 101° |
| 2026-05-05 21:12 | 42.05389 | 34.84676 | 10073 ft | 287 kts | 100° |
| 2026-05-05 21:12 | 42.05023 | 34.87305 | 9888 ft | 286 kts | 100° |
| 2026-05-05 21:12 | 42.04667 | 34.89948 | 9437 ft | 287 kts | 99° |
| 2026-05-05 21:12 | 42.04318 | 34.92584 | 9045 ft | 285 kts | 99° |
| 2026-05-05 21:13 | 42.03973 | 34.95198 | 8664 ft | 283 kts | 99° |
| 2026-05-05 21:13 | 42.03629 | 34.97791 | 8285 ft | 281 kts | 100° |
| 2026-05-05 21:13 | 42.03283 | 35.00375 | 7907 ft | 279 kts | 100° |
| 2026-05-05 21:13 | 42.02938 | 35.02926 | 7536 ft | 277 kts | 100° |
| 2026-05-05 21:14 | 42.02680 | 35.05479 | 7169 ft | 274 kts | 90° |
| 2026-05-05 21:14 | 42.02926 | 35.07974 | 6809 ft | 272 kts | 73° |
| 2026-05-05 21:14 | 42.03707 | 35.10272 | 6431 ft | 270 kts | 56° |
| 2026-05-05 21:14 | 42.04788 | 35.12325 | 6047 ft | 267 kts | 54° |
| 2026-05-05 21:15 | 42.05862 | 35.14351 | 5678 ft | 265 kts | 54° |
| 2026-05-05 21:15 | 42.06920 | 35.16358 | 5319 ft | 262 kts | 54° |
| 2026-05-05 21:15 | 42.07690 | 35.18562 | 4967 ft | 260 kts | 76° |
| 2026-05-05 21:15 | 42.07762 | 35.20971 | 4605 ft | 259 kts | 98° |
| 2026-05-05 21:16 | 42.07475 | 35.23346 | 4256 ft | 256 kts | 98° |
| 2026-05-05 21:16 | 42.07193 | 35.25696 | 3911 ft | 253 kts | 98° |
| 2026-05-05 21:16 | 42.07066 | 35.26759 | 3757 ft | 252 kts | 98° |
| 2026-05-05 21:25 | 42.06905 | 35.28450 | 3583 ft | 246 kts | 90° |
| 2026-05-05 21:26 | 42.07269 | 35.30597 | 3455 ft | 231 kts | 57° |
| 2026-05-05 21:26 | 42.08345 | 35.32080 | 3336 ft | 217 kts | 26° |
| 2026-05-05 21:26 | 42.09771 | 35.32616 | 3235 ft | 213 kts | 358° |
| 2026-05-05 21:26 | 42.11186 | 35.32168 | 3136 ft | 209 kts | 329° |
| 2026-05-05 21:27 | 42.12271 | 35.30897 | 3035 ft | 208 kts | 303° |
| 2026-05-05 21:27 | 42.12789 | 35.29104 | 2996 ft | 208 kts | 276° |
| 2026-05-05 21:27 | 42.12633 | 35.27172 | 2990 ft | 211 kts | 250° |
| 2026-05-05 21:27 | 42.11866 | 35.25478 | 2995 ft | 214 kts | 235° |
| 2026-05-05 21:28 | 42.10980 | 35.23868 | 2994 ft | 214 kts | 235° |
| 2026-05-05 21:28 | 42.10102 | 35.22269 | 2742 ft | 215 kts | 235° |
| 2026-05-05 21:28 | 42.09206 | 35.20630 | 2368 ft | 219 kts | 235° |
| 2026-05-05 21:28 | 42.08303 | 35.18979 | 2044 ft | 219 kts | 235° |
| 2026-05-05 21:29 | 42.07418 | 35.17364 | 1740 ft | 208 kts | 234° |
| 2026-05-05 21:29 | 42.06579 | 35.15833 | 1457 ft | 198 kts | 234° |
| 2026-05-05 21:29 | 42.05780 | 35.14373 | 1192 ft | 190 kts | 234° |
| 2026-05-05 21:29 | 42.05003 | 35.12955 | 932 ft | 186 kts | 233° |
| 2026-05-05 21:30 | 42.04261 | 35.11602 | 694 ft | 172 kts | 233° |
| 2026-05-05 21:30 | 42.03576 | 35.10352 | 428 ft | 161 kts | 233° |
| 2026-05-05 21:30 | 42.02933 | 35.09181 | 241 ft | 150 kts | 234° |
| 2026-05-05 21:30 | 42.02329 | 35.08079 | 73 ft | 144 kts | 233° |
| 2026-05-05 21:31 | 42.01801 | 35.07101 | 47 ft | 109 kts | 234° |
| 2026-05-05 21:31 | 42.01268 | 35.06115 | 277 ft | 150 kts | 234° |
| 2026-05-05 21:31 | 42.00674 | 35.04957 | 1168 ft | 152 kts | 236° |
| 2026-05-05 21:31 | 42.00074 | 35.03767 | 2055 ft | 161 kts | 239° |
| 2026-05-05 21:32 | 41.99870 | 35.02218 | 2685 ft | 182 kts | 281° |
| 2026-05-05 21:32 | 42.00235 | 35.00439 | 2967 ft | 212 kts | 287° |
| 2026-05-05 21:32 | 42.00697 | 34.98573 | 2778 ft | 210 kts | 290° |
| 2026-05-05 21:32 | 42.01268 | 34.96764 | 2449 ft | 210 kts | 297° |
| 2026-05-05 21:33 | 42.02053 | 34.95107 | 2146 ft | 210 kts | 308° |
| 2026-05-05 21:33 | 42.03080 | 34.93725 | 2013 ft | 209 kts | 321° |
| 2026-05-05 21:33 | 42.04316 | 34.92696 | 2224 ft | 211 kts | 334° |
| 2026-05-05 21:33 | 42.05712 | 34.92063 | 2482 ft | 213 kts | 347° |
| 2026-05-05 21:34 | 42.07192 | 34.91883 | 2738 ft | 215 kts | 1° |
| 2026-05-05 21:34 | 42.08676 | 34.92185 | 2932 ft | 217 kts | 15° |
| 2026-05-05 21:34 | 42.09992 | 34.93154 | 2991 ft | 219 kts | 41° |
| 2026-05-05 21:34 | 42.11070 | 34.94611 | 2996 ft | 219 kts | 46° |
| 2026-05-05 21:35 | 42.12094 | 34.96136 | 2994 ft | 220 kts | 46° |
| 2026-05-05 21:35 | 42.13099 | 34.97690 | 2991 ft | 220 kts | 47° |
| 2026-05-05 21:35 | 42.14102 | 34.99252 | 2994 ft | 220 kts | 47° |
| 2026-05-05 21:35 | 42.15102 | 35.00810 | 2994 ft | 220 kts | 47° |
| 2026-05-05 21:36 | 42.15847 | 35.02604 | 2997 ft | 222 kts | 71° |
| 2026-05-05 21:36 | 42.16228 | 35.04620 | 2795 ft | 222 kts | 76° |
| 2026-05-05 21:36 | 42.16550 | 35.06658 | 2483 ft | 222 kts | 77° |
| 2026-05-05 21:36 | 42.16861 | 35.08661 | 2190 ft | 221 kts | 77° |
| 2026-05-05 21:37 | 42.17163 | 35.10678 | 2012 ft | 219 kts | 83° |
| 2026-05-05 21:37 | 42.16943 | 35.12684 | 1988 ft | 220 kts | 115° |
| 2026-05-05 21:37 | 42.16010 | 35.14284 | 1990 ft | 218 kts | 146° |
| 2026-05-05 21:37 | 42.14648 | 35.15155 | 1993 ft | 217 kts | 161° |
| 2026-05-05 21:38 | 42.13231 | 35.15864 | 1991 ft | 218 kts | 161° |
| 2026-05-05 21:38 | 42.11813 | 35.16578 | 1994 ft | 218 kts | 161° |
| 2026-05-05 21:38 | 42.10393 | 35.17295 | 1994 ft | 218 kts | 161° |
| 2026-05-05 21:38 | 42.09051 | 35.18223 | 1993 ft | 219 kts | 142° |
| 2026-05-05 21:39 | 42.08078 | 35.19794 | 1993 ft | 220 kts | 117° |
| 2026-05-05 21:39 | 42.07647 | 35.21734 | 1994 ft | 220 kts | 97° |
| 2026-05-05 21:39 | 42.07419 | 35.23774 | 1994 ft | 221 kts | 98° |
| 2026-05-05 21:39 | 42.07181 | 35.25817 | 1994 ft | 221 kts | 98° |
| 2026-05-05 21:40 | 42.06940 | 35.27858 | 1994 ft | 221 kts | 97° |
| 2026-05-05 21:40 | 42.07026 | 35.29888 | 1993 ft | 218 kts | 69° |
| 2026-05-05 21:40 | 42.07836 | 35.31581 | 1993 ft | 216 kts | 39° |
| 2026-05-05 21:40 | 42.09132 | 35.32515 | 1993 ft | 212 kts | 10° |
| 2026-05-05 21:41 | 42.10585 | 35.32494 | 1993 ft | 209 kts | 342° |
| 2026-05-05 21:41 | 42.11842 | 35.31568 | 1993 ft | 206 kts | 315° |
| 2026-05-05 21:41 | 42.12635 | 35.29988 | 1994 ft | 205 kts | 289° |
| 2026-05-05 21:41 | 42.12808 | 35.28095 | 1993 ft | 206 kts | 262° |
| 2026-05-05 21:42 | 42.12306 | 35.26297 | 1993 ft | 208 kts | 236° |
| 2026-05-05 21:42 | 42.11449 | 35.24723 | 1994 ft | 209 kts | 234° |
| 2026-05-05 21:42 | 42.10583 | 35.23146 | 1994 ft | 209 kts | 235° |
| 2026-05-05 21:42 | 42.09717 | 35.21564 | 1993 ft | 209 kts | 235° |
| 2026-05-05 21:43 | 42.08854 | 35.19985 | 1994 ft | 209 kts | 235° |
| 2026-05-05 21:43 | 42.07990 | 35.18406 | 1874 ft | 209 kts | 235° |
| 2026-05-05 21:43 | 42.07142 | 35.16858 | 1633 ft | 208 kts | 235° |
| 2026-05-05 21:43 | 42.06287 | 35.15296 | 1361 ft | 207 kts | 234° |
| 2026-05-05 21:44 | 42.05435 | 35.13740 | 1081 ft | 206 kts | 234° |
| 2026-05-05 21:44 | 42.04582 | 35.12186 | 791 ft | 204 kts | 233° |
| 2026-05-05 21:44 | 42.03769 | 35.10703 | 424 ft | 194 kts | 233° |
| 2026-05-05 21:44 | 42.03115 | 35.09529 | 507 ft | 164 kts | 233° |
| 2026-05-05 21:45 | 42.02974 | 35.09277 | 469 ft | 161 kts | 234° |
| 2026-05-05 21:45 | 42.02665 | 35.08672 | 244 ft | 163 kts | 231° |
| 2026-05-05 21:45 | 42.02013 | 35.07496 | 53 ft | 145 kts | 232° |
| 2026-05-05 21:46 | 42.01490 | 35.06550 | 48 ft | 94 kts | 233° |
| 2026-05-05 21:46 | 42.01310 | 35.06222 | 46 ft | 6 kts | 233° |
| 2026-05-05 21:46 | 42.01316 | 35.06232 | 46 ft | 0 kts | 233° |
| 2026-05-05 21:47 | 42.02271 | 35.07972 | 49 ft | 383 kts | 233° |